Terminal Aerodrome Forecast
Issued by NWS Buffalo, NY

Home | Current Version | Previous Version | Text Only | Print | Product List | Glossary On
Versions: 1 2 3 4 5 6 7 8 9 10 11 12 13 14 15 16 17 18 19 20 21 22 23 24 25 26 27 28 29
000
FTUS41 KBUF 271100
TAFROC
TAF
KROC 271120Z 2712/2812 33006KT P6SM VCSH BKN015
     FM271400 32007KT P6SM OVC025
     FM271800 32010KT P6SM VCSH OVC035
     FM280500 31005KT P6SM OVC035=

USA.gov is the U.S. government's official web portal to all federal, state and local government web resources and services.